createdAt,value
2018-03-21T00:02:08.822Z,15.52
2018-03-21T00:04:36.538Z,13.02
2018-03-21T00:07:05.023Z,13.77
2018-03-21T00:09:32.679Z,19.48
2018-03-21T00:12:00.222Z,11.90
2018-03-21T00:14:27.787Z,12.50
2018-03-21T00:16:55.354Z,12.25
2018-03-21T00:19:23.647Z,11.00
2018-03-21T00:21:51.170Z,12.60
2018-03-21T00:24:18.743Z,22.33
2018-03-21T00:26:46.304Z,12.60
2018-03-21T00:29:13.782Z,12.88
2018-03-21T00:31:41.322Z,16.67
2018-03-21T00:34:08.915Z,12.32
2018-03-21T00:36:36.498Z,15.52
2018-03-21T00:39:04.030Z,19.40
2018-03-21T00:41:31.746Z,22.10
2018-03-21T00:43:59.327Z,42.17
2018-03-21T00:46:26.945Z,13.80
2018-03-21T00:48:54.523Z,12.55
2018-03-21T00:51:22.091Z,15.80
2018-03-21T00:53:49.767Z,14.87
2018-03-21T00:56:18.156Z,13.38
2018-03-21T00:58:46.551Z,13.25
2018-03-21T01:01:14.152Z,19.33
2018-03-21T01:03:41.773Z,27.92
2018-03-21T01:06:10.309Z,24.20
2018-03-21T01:08:37.898Z,18.30
2018-03-21T01:11:05.402Z,23.12
2018-03-21T01:13:33.812Z,27.60
2018-03-21T01:16:01.389Z,36.08
2018-03-21T01:18:29.005Z,18.23
2018-03-21T01:20:56.522Z,30.60
2018-03-21T01:23:24.018Z,27.35
2018-03-21T01:25:52.262Z,39.47
2018-03-21T01:28:19.843Z,44.08
2018-03-21T01:30:48.183Z,45.05
2018-03-21T01:33:15.798Z,25.92
2018-03-21T01:35:43.380Z,30.60
2018-03-21T01:38:10.994Z,24.87
2018-03-21T01:40:38.572Z,20.00
2018-03-21T01:43:06.085Z,16.77
2018-03-21T01:45:33.667Z,24.98
2018-03-21T01:48:01.978Z,17.70
2018-03-21T01:50:29.586Z,14.90
2018-03-21T01:53:08.954Z,17.92
2018-03-21T01:55:37.247Z,13.07
2018-03-21T01:58:04.791Z,15.02
2018-03-21T02:00:33.057Z,16.33
2018-03-21T02:03:00.534Z,25.15
2018-03-21T02:05:28.043Z,13.35
2018-03-21T02:07:55.560Z,14.45
2018-03-21T02:10:23.070Z,13.70
2018-03-21T02:12:50.566Z,12.80
2018-03-21T02:15:18.813Z,25.85
2018-03-21T02:17:46.339Z,18.23
2018-03-21T02:20:13.950Z,15.95
2018-03-21T02:22:42.259Z,12.90
2018-03-21T02:25:09.828Z,13.10
2018-03-21T02:27:37.416Z,12.85
2018-03-21T02:30:04.952Z,20.73
2018-03-21T02:32:32.459Z,28.50
2018-03-21T02:35:00.804Z,29.80
2018-03-21T02:37:28.298Z,46.58
2018-03-21T02:39:56.661Z,35.08
2018-03-21T02:42:24.208Z,24.20
2018-03-21T02:44:51.781Z,16.75
2018-03-21T02:47:19.399Z,24.73
2018-03-21T02:49:46.878Z,25.75
2018-03-21T02:52:14.367Z,19.30
2018-03-21T02:54:41.876Z,57.55
2018-03-21T02:57:09.532Z,18.27
2018-03-21T02:59:37.072Z,35.00
2018-03-21T03:02:04.752Z,20.50
2018-03-21T03:04:32.270Z,36.65
2018-03-21T03:06:59.839Z,45.53
2018-03-21T03:09:28.171Z,24.00
2018-03-21T03:11:56.474Z,17.42
2018-03-21T03:14:24.844Z,19.58
2018-03-21T03:16:53.146Z,70.65
2018-03-21T03:19:21.458Z,53.15
2018-03-21T03:21:48.942Z,26.27
2018-03-21T03:24:16.575Z,31.80
2018-03-21T03:26:44.062Z,41.72
2018-03-21T03:29:11.548Z,41.22
2018-03-21T03:31:39.080Z,47.00
2018-03-21T03:34:06.634Z,30.37
2018-03-21T03:36:34.278Z,31.90
2018-03-21T03:41:35.762Z,21.50
2018-03-21T03:44:03.342Z,32.78
2018-03-21T03:46:30.966Z,23.10
2018-03-21T03:48:58.538Z,17.75
2018-03-21T03:51:26.126Z,59.13
2018-03-21T03:53:59.582Z,48.75
2018-03-21T03:56:27.147Z,33.60
2018-03-21T03:58:54.747Z,44.28
2018-03-21T04:01:23.089Z,108.60
2018-03-21T04:03:50.601Z,133.50
2018-03-21T04:06:18.852Z,90.05
2018-03-21T04:08:46.476Z,46.35
2018-03-21T04:11:14.130Z,31.83
2018-03-21T04:13:41.717Z,48.95
2018-03-21T04:16:10.151Z,32.60
2018-03-21T04:18:37.835Z,31.05
2018-03-21T04:21:05.390Z,41.22
2018-03-21T04:23:32.991Z,34.30
2018-03-21T04:26:00.527Z,19.30
2018-03-21T04:28:28.121Z,45.03
2018-03-21T04:30:55.631Z,50.12
2018-03-21T04:33:23.105Z,29.05
2018-03-21T04:35:50.723Z,17.05
2018-03-21T04:38:19.081Z,52.78
2018-03-21T04:40:46.567Z,50.78
2018-03-21T04:43:14.147Z,48.87
2018-03-21T04:45:41.756Z,25.15
2018-03-21T04:48:09.312Z,20.35
2018-03-21T04:50:36.976Z,79.55
2018-03-21T04:53:04.605Z,127.00
2018-03-21T04:55:32.103Z,71.65
2018-03-21T04:57:59.642Z,64.35
2018-03-21T05:00:27.376Z,63.00
2018-03-21T05:02:55.012Z,95.15
2018-03-21T05:05:22.535Z,66.30
2018-03-21T05:07:50.834Z,37.65
2018-03-21T05:10:18.317Z,43.22
2018-03-21T05:12:45.806Z,56.70
2018-03-21T05:15:14.110Z,90.40
2018-03-21T05:17:41.599Z,58.22
2018-03-21T05:20:09.087Z,72.32
2018-03-21T05:22:36.594Z,241.27
2018-03-21T05:25:04.907Z,415.10
2018-03-21T05:27:32.462Z,238.07
2018-03-21T05:30:00.069Z,128.50
2018-03-21T05:32:27.553Z,66.90
2018-03-21T05:34:55.822Z,58.13
2018-03-21T05:37:24.217Z,72.32
2018-03-21T05:39:51.726Z,49.88
2018-03-21T05:42:19.220Z,56.33
2018-03-21T05:44:47.479Z,47.45
2018-03-21T05:47:14.971Z,44.15
2018-03-21T05:49:42.556Z,55.88
2018-03-21T05:52:10.218Z,67.57
2018-03-21T05:54:37.827Z,41.10
2018-03-21T05:57:06.130Z,34.10
2018-03-21T05:59:34.399Z,41.80
2018-03-21T06:02:01.911Z,50.30
2018-03-21T06:04:29.400Z,58.15
2018-03-21T06:06:57.717Z,87.47
2018-03-21T06:09:25.235Z,123.87
2018-03-21T06:11:53.573Z,74.10
2018-03-21T06:14:21.076Z,50.10
2018-03-21T06:16:49.354Z,90.90
2018-03-21T06:19:17.723Z,76.15
2018-03-21T06:21:45.335Z,55.75
2018-03-21T06:24:12.905Z,32.95
2018-03-21T06:26:40.459Z,32.08
2018-03-21T06:29:07.993Z,38.63
2018-03-21T06:31:35.535Z,27.10
2018-03-21T06:34:03.857Z,35.10
2018-03-21T06:36:31.378Z,22.50
2018-03-21T06:38:59.655Z,37.40
2018-03-21T06:41:28.067Z,40.65
2018-03-21T06:43:55.594Z,30.08
2018-03-21T06:46:23.862Z,36.22
2018-03-21T06:48:52.150Z,46.53
2018-03-21T06:51:20.412Z,26.60
2018-03-21T06:53:48.698Z,19.02
2018-03-21T06:56:16.973Z,17.60
2018-03-21T06:58:45.264Z,19.55
2018-03-21T07:01:12.758Z,19.25
2018-03-21T07:03:40.270Z,21.10
2018-03-21T07:06:07.755Z,20.20
2018-03-21T07:08:35.242Z,19.08
2018-03-21T07:11:02.779Z,18.60
2018-03-21T07:13:42.162Z,15.05
2018-03-21T07:16:21.426Z,14.15
2018-03-21T07:18:48.970Z,14.98
2018-03-21T07:21:17.424Z,12.68
2018-03-21T07:23:44.906Z,14.40
2018-03-21T07:26:13.204Z,15.32
2018-03-21T07:28:40.735Z,14.65
2018-03-21T07:31:09.229Z,36.83
2018-03-21T07:33:37.489Z,14.87
2018-03-21T07:36:05.754Z,15.30
2018-03-21T07:38:34.188Z,13.90
2018-03-21T07:41:01.675Z,16.08
2018-03-21T07:43:29.178Z,15.60
2018-03-21T07:45:57.450Z,15.05
2018-03-21T07:48:25.694Z,15.65
2018-03-21T07:50:53.201Z,15.20
2018-03-21T07:53:20.698Z,13.23
2018-03-21T07:55:48.206Z,12.77
2018-03-21T07:58:16.482Z,12.57
2018-03-21T08:00:44.735Z,11.77
2018-03-21T08:03:13.004Z,11.25
2018-03-21T08:05:40.518Z,12.05
2018-03-21T08:08:08.006Z,12.18
2018-03-21T08:10:35.523Z,13.52
2018-03-21T08:13:03.050Z,13.82
2018-03-21T08:15:30.530Z,13.13
2018-03-21T08:17:58.339Z,12.30
2018-03-21T08:20:25.823Z,11.25
2018-03-21T08:22:53.294Z,13.15
2018-03-21T08:25:21.557Z,12.60
2018-03-21T08:27:49.042Z,11.05
2018-03-21T08:30:17.309Z,9.15
2018-03-21T08:32:45.610Z,10.55
2018-03-21T08:35:13.516Z,10.98
2018-03-21T08:37:40.998Z,9.93
2018-03-21T08:40:08.493Z,8.13
2018-03-21T08:42:36.000Z,11.05
2018-03-21T08:45:03.520Z,10.90
2018-03-21T08:47:31.016Z,10.82
2018-03-21T08:49:58.540Z,12.25
2018-03-21T08:52:26.026Z,9.60
2018-03-21T08:54:53.514Z,8.97
2018-03-21T08:57:21.812Z,8.95
2018-03-21T08:59:49.302Z,9.68
2018-03-21T09:02:16.834Z,8.30
2018-03-21T09:04:44.375Z,8.65
2018-03-21T09:07:12.629Z,9.18
2018-03-21T09:09:40.121Z,10.23
2018-03-21T09:12:07.614Z,6.85
2018-03-21T09:14:35.098Z,8.05
2018-03-21T09:17:02.578Z,7.10
2018-03-21T09:19:30.107Z,7.65
2018-03-21T09:21:57.597Z,8.75
2018-03-21T09:24:25.179Z,7.10
2018-03-21T09:26:52.643Z,8.40
2018-03-21T09:29:20.135Z,8.48
2018-03-21T09:31:47.654Z,7.72
2018-03-21T09:34:15.134Z,7.78
2018-03-21T09:36:42.616Z,8.48
2018-03-21T09:39:10.190Z,7.80
2018-03-21T09:41:37.672Z,8.35
2018-03-21T09:44:05.162Z,8.45
2018-03-21T09:46:32.673Z,8.80
2018-03-21T09:49:00.162Z,8.60
2018-03-21T09:51:27.638Z,8.02
2018-03-21T09:53:55.134Z,7.20
2018-03-21T09:56:22.624Z,7.18
2018-03-21T09:58:50.882Z,7.78
2018-03-21T10:01:18.398Z,7.62
2018-03-21T10:03:45.884Z,7.80
2018-03-21T10:06:13.373Z,7.40
2018-03-21T10:08:41.760Z,8.73
2018-03-21T10:11:09.295Z,6.57
2018-03-21T10:13:36.775Z,8.18
2018-03-21T10:16:05.044Z,8.30
2018-03-21T10:21:07.966Z,7.90
2018-03-21T10:23:35.443Z,7.85
2018-03-21T10:26:02.990Z,8.07
2018-03-21T10:28:30.485Z,6.62
2018-03-21T10:30:57.958Z,5.05
2018-03-21T10:33:25.459Z,5.25
2018-03-21T10:35:52.979Z,5.55
2018-03-21T10:38:20.459Z,6.22
2018-03-21T10:40:48.733Z,7.53
2018-03-21T10:43:16.286Z,5.82
2018-03-21T10:45:44.545Z,5.50
2018-03-21T10:48:12.033Z,6.33
2018-03-21T10:50:40.368Z,7.83
2018-03-21T10:53:07.874Z,6.60
2018-03-21T10:55:36.150Z,7.90
2018-03-21T10:58:04.412Z,6.97
2018-03-21T11:00:32.666Z,6.40
2018-03-21T11:03:02.007Z,8.00
2018-03-21T11:05:30.265Z,8.10
2018-03-21T11:07:58.532Z,9.35
2018-03-21T11:10:26.034Z,7.45
2018-03-21T11:12:54.386Z,6.20
2018-03-21T11:15:22.633Z,6.53
2018-03-21T11:17:50.146Z,6.37
2018-03-21T11:20:17.642Z,7.78
2018-03-21T11:22:45.209Z,6.85
2018-03-21T11:25:12.800Z,7.20
2018-03-21T11:27:40.234Z,7.15
2018-03-21T11:30:07.715Z,6.85
2018-03-21T11:32:36.033Z,6.35
2018-03-21T11:35:03.514Z,6.53
2018-03-21T11:37:31.005Z,6.78
2018-03-21T11:39:59.306Z,6.82
2018-03-21T11:42:26.838Z,6.62
2018-03-21T11:44:54.368Z,6.75
2018-03-21T11:47:21.874Z,7.05
2018-03-21T11:49:50.114Z,8.20
2018-03-21T11:52:17.598Z,6.37
2018-03-21T11:54:45.888Z,7.80
2018-03-21T11:57:13.376Z,7.75
2018-03-21T11:59:40.866Z,7.43
2018-03-21T12:02:08.354Z,7.32
2018-03-21T12:04:36.599Z,7.25
2018-03-21T12:07:04.148Z,7.93
2018-03-21T12:09:31.637Z,7.85
2018-03-21T12:11:59.109Z,7.55
2018-03-21T12:14:27.375Z,7.53
2018-03-21T12:16:55.626Z,8.30
2018-03-21T12:19:23.114Z,7.55
2018-03-21T12:21:51.438Z,7.47
2018-03-21T12:24:18.917Z,7.47
2018-03-21T12:26:46.411Z,8.90
2018-03-21T12:29:14.698Z,7.30
2018-03-21T12:31:42.207Z,7.85
2018-03-21T12:34:09.693Z,7.07
2018-03-21T12:36:37.982Z,7.18
2018-03-21T12:39:06.231Z,8.18
2018-03-21T12:41:33.734Z,7.82
2018-03-21T12:44:01.351Z,7.70
2018-03-21T12:46:28.834Z,8.73
2018-03-21T12:48:57.102Z,9.25
2018-03-21T12:51:25.390Z,8.75
2018-03-21T12:53:52.942Z,8.20
2018-03-21T12:56:21.271Z,8.00
2018-03-21T12:58:48.713Z,7.75
2018-03-21T13:01:16.342Z,8.18
2018-03-21T13:03:44.590Z,8.40
2018-03-21T13:06:12.083Z,10.43
2018-03-21T13:08:40.457Z,7.57
2018-03-21T13:11:08.698Z,7.28
2018-03-21T13:13:36.345Z,7.47
2018-03-21T13:16:03.718Z,8.15
2018-03-21T13:18:31.198Z,9.68
2018-03-21T13:20:59.466Z,7.07
2018-03-21T13:23:26.953Z,6.45
2018-03-21T13:25:55.260Z,7.05
2018-03-21T13:28:23.537Z,8.18
2018-03-21T13:30:51.053Z,6.72
2018-03-21T13:33:19.339Z,7.30
2018-03-21T13:35:47.351Z,6.80
2018-03-21T13:38:15.019Z,7.35
2018-03-21T13:40:42.521Z,5.43
2018-03-21T13:43:10.777Z,5.50
2018-03-21T13:45:39.022Z,5.10
2018-03-21T13:48:06.535Z,6.00
2018-03-21T13:50:34.018Z,7.12
2018-03-21T13:53:01.511Z,5.93
2018-03-21T13:55:29.029Z,5.93
2018-03-21T13:57:56.515Z,6.47
2018-03-21T14:00:23.995Z,5.93
2018-03-21T14:02:51.527Z,5.40
2018-03-21T14:05:19.026Z,6.87
2018-03-21T14:07:47.279Z,7.13
2018-03-21T14:10:14.809Z,7.20
2018-03-21T14:12:42.311Z,6.57
2018-03-21T14:15:09.794Z,6.83
2018-03-21T14:17:38.071Z,6.10
2018-03-21T14:20:06.350Z,4.57
2018-03-21T14:22:33.835Z,5.27
2018-03-21T14:25:01.348Z,5.30
2018-03-21T14:27:29.604Z,5.93
2018-03-21T14:29:57.088Z,5.83
2018-03-21T14:32:25.368Z,7.03
2018-03-21T14:34:52.867Z,5.53
2018-03-21T14:37:20.354Z,6.17
2018-03-21T14:39:47.846Z,5.90
2018-03-21T14:42:15.383Z,5.83
2018-03-21T14:44:42.881Z,6.90
2018-03-21T14:47:10.406Z,6.30
2018-03-21T14:49:38.186Z,6.78
2018-03-21T14:52:05.688Z,6.40
2018-03-21T14:54:33.190Z,6.53
2018-03-21T14:57:01.479Z,6.25
2018-03-21T14:59:28.968Z,5.80
2018-03-21T15:01:56.452Z,7.03
2018-03-21T15:04:24.018Z,5.35
2018-03-21T15:06:51.523Z,7.28
2018-03-21T15:09:19.077Z,7.80
2018-03-21T15:11:46.562Z,7.87
2018-03-21T15:14:14.050Z,7.85
2018-03-21T15:16:41.567Z,8.43
2018-03-21T15:19:09.052Z,8.57
2018-03-21T15:21:36.559Z,8.25
2018-03-21T15:24:04.867Z,9.20
2018-03-21T15:26:32.365Z,7.70
2018-03-21T15:28:59.890Z,6.77
2018-03-21T15:31:27.404Z,8.60
2018-03-21T15:33:55.659Z,7.87
2018-03-21T15:36:23.197Z,8.40
2018-03-21T15:38:50.728Z,7.78
2018-03-21T15:41:18.213Z,9.25
2018-03-21T15:43:45.745Z,8.07
2018-03-21T15:46:13.235Z,7.32
2018-03-21T15:48:40.803Z,8.38
2018-03-21T15:51:08.326Z,7.47
2018-03-21T15:53:35.830Z,8.23
2018-03-21T15:56:03.351Z,8.25
2018-03-21T15:58:30.906Z,7.78
2018-03-21T16:00:58.404Z,7.63
2018-03-21T16:03:25.923Z,6.17
2018-03-21T16:05:53.411Z,6.57
2018-03-21T16:08:20.893Z,6.47
2018-03-21T16:10:49.171Z,7.00
2018-03-21T16:13:16.650Z,6.27
2018-03-21T16:15:44.138Z,5.60
2018-03-21T16:18:11.667Z,5.93
2018-03-21T16:20:39.146Z,5.97
2018-03-21T16:23:06.640Z,6.30
2018-03-21T16:25:34.208Z,7.10
2018-03-21T16:28:01.701Z,6.63
2018-03-21T16:30:29.216Z,6.83
2018-03-21T16:32:56.715Z,6.83
2018-03-21T16:35:24.250Z,6.50
2018-03-21T16:37:52.514Z,6.80
2018-03-21T16:40:20.050Z,7.35
2018-03-21T16:42:47.564Z,6.90
2018-03-21T16:45:15.062Z,7.80
2018-03-21T16:47:42.582Z,7.90
2018-03-21T16:50:10.074Z,8.00
2018-03-21T16:52:37.570Z,7.53
2018-03-21T16:55:05.141Z,7.57
2018-03-21T16:57:33.414Z,8.93
2018-03-21T17:00:01.705Z,8.73
2018-03-21T17:02:29.234Z,9.18
2018-03-21T17:04:56.733Z,9.65
2018-03-21T17:07:24.267Z,8.32
2018-03-21T17:09:52.567Z,8.98
2018-03-21T17:12:20.006Z,9.65
2018-03-21T17:14:48.278Z,8.80
2018-03-21T17:17:15.807Z,8.65
2018-03-21T17:19:43.516Z,8.18
2018-03-21T17:22:11.027Z,9.57
2018-03-21T17:24:38.515Z,8.57
2018-03-21T17:27:05.983Z,7.75
2018-03-21T17:29:34.227Z,8.90
2018-03-21T17:32:01.722Z,8.30
2018-03-21T17:34:30.034Z,7.28
2018-03-21T17:36:57.518Z,7.12
2018-03-21T17:39:25.036Z,8.07
2018-03-21T17:41:52.578Z,7.55
2018-03-21T17:44:20.826Z,6.78
2018-03-21T17:46:48.326Z,8.30
2018-03-21T17:49:15.811Z,6.95
2018-03-21T17:51:43.312Z,6.65
2018-03-21T17:54:11.587Z,8.10
2018-03-21T17:56:39.094Z,9.20
2018-03-21T17:59:06.589Z,7.95
2018-03-21T18:01:34.096Z,7.45
2018-03-21T18:04:01.823Z,8.25
2018-03-21T18:06:30.118Z,7.65
2018-03-21T18:08:58.393Z,8.45
2018-03-21T18:11:26.662Z,7.93
2018-03-21T18:13:54.910Z,7.45
2018-03-21T18:16:22.494Z,8.38
2018-03-21T18:18:50.778Z,7.80
2018-03-21T18:21:19.060Z,8.18
2018-03-21T18:23:47.319Z,7.20
2018-03-21T18:26:14.908Z,8.38
2018-03-21T18:28:42.450Z,7.50
2018-03-21T18:31:10.722Z,8.02
2018-03-21T18:33:39.044Z,9.00
2018-03-21T18:36:06.578Z,8.27
2018-03-21T18:38:34.066Z,9.23
2018-03-21T18:41:01.612Z,8.13
2018-03-21T18:43:29.098Z,8.20
2018-03-21T18:45:56.574Z,8.43
2018-03-21T18:48:24.074Z,9.20
2018-03-21T18:50:51.595Z,7.47
2018-03-21T18:53:19.071Z,9.38
2018-03-21T18:55:47.358Z,7.68
2018-03-21T18:58:14.855Z,8.70
2018-03-21T19:00:42.358Z,8.07
2018-03-21T19:03:10.650Z,7.20
2018-03-21T19:05:38.136Z,9.23
2018-03-21T19:08:05.618Z,9.38
2018-03-21T19:10:34.006Z,9.57
2018-03-21T19:13:01.488Z,8.63
2018-03-21T19:15:29.774Z,7.85
2018-03-21T19:17:58.576Z,8.13
2018-03-21T19:20:26.058Z,7.72
2018-03-21T19:22:54.302Z,7.90
2018-03-21T19:25:21.953Z,8.00
2018-03-21T19:27:50.207Z,7.50
2018-03-21T19:30:17.983Z,9.00
2018-03-21T19:32:45.462Z,9.30
2018-03-21T19:35:12.938Z,8.27
2018-03-21T19:37:40.622Z,9.50
2018-03-21T19:40:08.177Z,9.20
2018-03-21T19:42:35.666Z,9.05
2018-03-21T19:45:03.322Z,8.48
2018-03-21T19:47:31.566Z,7.85
2018-03-21T19:49:59.082Z,8.50
2018-03-21T19:52:27.376Z,7.43
2018-03-21T19:54:54.863Z,7.47
2018-03-21T19:57:22.362Z,8.07
2018-03-21T19:59:50.005Z,8.02
2018-03-21T20:02:17.506Z,8.50
2018-03-21T20:04:45.754Z,7.87
2018-03-21T20:07:13.319Z,8.43
2018-03-21T20:09:40.810Z,7.97
2018-03-21T20:12:09.262Z,7.40
2018-03-21T20:14:37.579Z,8.18
2018-03-21T20:17:05.078Z,10.27
2018-03-21T20:19:32.598Z,7.72
2018-03-21T20:22:00.089Z,8.68
2018-03-21T20:24:27.595Z,6.80
2018-03-21T20:26:55.114Z,9.00
2018-03-21T20:29:22.623Z,8.88
2018-03-21T20:31:51.004Z,7.10
2018-03-21T20:34:19.308Z,7.00
2018-03-21T20:36:46.883Z,8.52
2018-03-21T20:39:14.438Z,7.53
2018-03-21T20:41:41.949Z,7.50
2018-03-21T20:44:09.534Z,8.27
2018-03-21T20:46:37.051Z,8.57
2018-03-21T20:49:05.431Z,8.40
2018-03-21T20:51:33.710Z,7.95
2018-03-21T20:54:01.966Z,8.20
2018-03-21T20:56:30.280Z,7.60
2018-03-21T20:58:57.925Z,7.07
2018-03-21T21:01:26.181Z,8.25
2018-03-21T21:03:53.690Z,8.80
2018-03-21T21:06:21.203Z,8.45
2018-03-21T21:08:49.743Z,8.65
2018-03-21T21:11:17.347Z,7.78
2018-03-21T21:13:46.531Z,8.90
2018-03-21T21:16:14.022Z,9.80
2018-03-21T21:18:42.286Z,9.55
2018-03-21T21:21:11.123Z,9.27
2018-03-21T21:23:38.634Z,9.98
2018-03-21T21:26:06.963Z,10.30
2018-03-21T21:28:34.433Z,10.35
2018-03-21T21:31:01.976Z,10.50
2018-03-21T21:33:29.537Z,10.80
2018-03-21T21:35:57.079Z,10.13
2018-03-21T21:38:24.576Z,9.15
2018-03-21T21:40:52.068Z,9.02
2018-03-21T21:43:20.379Z,8.10
2018-03-21T21:45:47.873Z,10.73
2018-03-21T21:48:15.366Z,10.63
2018-03-21T21:50:42.900Z,11.35
2018-03-21T21:53:10.380Z,10.85
2018-03-21T21:55:38.472Z,10.43
2018-03-21T21:58:05.980Z,13.07
2018-03-21T22:00:33.518Z,11.70
2018-03-21T22:03:01.053Z,13.20
2018-03-21T22:05:28.558Z,13.40
2018-03-21T22:07:56.042Z,12.77
2018-03-21T22:10:24.462Z,14.00
2018-03-21T22:12:52.801Z,11.90
2018-03-21T22:15:20.298Z,13.77
2018-03-21T22:17:47.873Z,15.90
2018-03-21T22:20:15.455Z,12.85
2018-03-21T22:22:42.977Z,13.50
2018-03-21T22:25:10.469Z,13.93
2018-03-21T22:27:37.953Z,15.38
2018-03-21T22:30:06.251Z,14.95
2018-03-21T22:32:33.746Z,16.83
2018-03-21T22:35:01.230Z,16.33
2018-03-21T22:37:29.521Z,16.05
2018-03-21T22:39:57.758Z,16.98
2018-03-21T22:42:25.236Z,16.65
2018-03-21T22:44:52.755Z,15.57
2018-03-21T22:47:20.269Z,16.77
2018-03-21T22:49:48.509Z,16.52
2018-03-21T22:52:16.013Z,17.15
2018-03-21T22:54:43.510Z,17.27
2018-03-21T22:57:10.989Z,16.55
2018-03-21T22:59:38.486Z,17.60
2018-03-21T23:02:05.986Z,16.75
2018-03-21T23:04:33.477Z,17.10
2018-03-21T23:07:00.966Z,16.80
2018-03-21T23:09:28.451Z,19.52
2018-03-21T23:11:55.947Z,18.52
2018-03-21T23:14:23.434Z,18.20
2018-03-21T23:16:50.930Z,18.77
2018-03-21T23:19:18.427Z,18.45
2018-03-21T23:21:46.677Z,18.70
2018-03-21T23:24:14.922Z,17.12
2018-03-21T23:26:42.451Z,19.80
2018-03-21T23:29:10.716Z,19.92
2018-03-21T23:31:38.970Z,18.45
2018-03-21T23:34:06.470Z,19.40
2018-03-21T23:36:33.961Z,20.70
2018-03-21T23:39:01.444Z,18.52
2018-03-21T23:41:28.950Z,19.30
2018-03-21T23:43:56.434Z,18.52
2018-03-21T23:46:23.918Z,18.50
2018-03-21T23:48:51.435Z,18.77
2018-03-21T23:51:18.930Z,17.87
2018-03-21T23:53:46.428Z,17.80
2018-03-21T23:56:13.913Z,21.10
2018-03-21T23:58:41.446Z,18.58
